createdAt,value
2019-05-17T00:03:09.273Z,3.57
2019-05-17T00:07:16.703Z,5.30
2019-05-17T00:11:22.523Z,5.30
2019-05-17T00:15:28.257Z,5.30
2019-05-17T00:19:33.962Z,5.40
2019-05-17T00:23:40.632Z,5.30
2019-05-17T00:27:47.431Z,5.10
2019-05-17T00:31:53.704Z,5.60
2019-05-17T00:35:59.397Z,5.77
2019-05-17T00:40:07.694Z,6.30
2019-05-17T00:44:13.371Z,6.07
2019-05-17T00:48:19.070Z,7.10
2019-05-17T00:52:27.164Z,6.90
2019-05-17T00:56:32.119Z,6.77
2019-05-17T01:00:38.848Z,5.97
2019-05-17T01:04:44.535Z,6.63
2019-05-17T01:09:01.030Z,5.50
2019-05-17T01:12:57.706Z,6.67
2019-05-17T01:17:03.495Z,6.50
2019-05-17T01:21:09.331Z,5.13
2019-05-17T01:25:17.216Z,5.67
2019-05-17T01:29:22.635Z,6.07
2019-05-17T01:33:28.492Z,7.73
2019-05-17T01:37:36.711Z,7.10
2019-05-17T01:41:41.556Z,7.27
2019-05-17T01:45:48.059Z,5.43
2019-05-17T01:49:53.921Z,6.97
2019-05-17T01:53:59.596Z,5.80
2019-05-17T01:58:07.412Z,7.17
2019-05-17T02:02:16.312Z,7.60
2019-05-17T02:06:21.727Z,5.87
2019-05-17T02:10:27.413Z,6.23
2019-05-17T02:14:33.082Z,8.33
2019-05-17T02:18:38.788Z,6.87
2019-05-17T02:22:47.082Z,5.87
2019-05-17T02:26:51.925Z,6.20
2019-05-17T02:30:57.945Z,6.97
2019-05-17T02:35:04.446Z,8.10
2019-05-17T02:39:13.132Z,7.17
2019-05-17T02:43:17.612Z,8.20
2019-05-17T02:47:23.292Z,6.83
2019-05-17T02:51:32.117Z,8.13
2019-05-17T02:55:36.423Z,7.57
2019-05-17T02:59:43.316Z,8.17
2019-05-17T03:03:49.145Z,8.93
2019-05-17T03:07:54.815Z,9.23
2019-05-17T03:12:03.290Z,8.67
2019-05-17T03:16:07.903Z,8.23
2019-05-17T03:20:15.314Z,9.30
2019-05-17T03:24:22.631Z,8.47
2019-05-17T03:28:28.538Z,8.93
2019-05-17T03:32:36.477Z,8.07
2019-05-17T03:36:46.966Z,10.27
2019-05-17T03:41:18.463Z,10.57
2019-05-17T03:45:02.631Z,10.73
2019-05-17T03:49:06.880Z,9.10
2019-05-17T03:53:13.284Z,9.87
2019-05-17T03:57:19.119Z,10.10
2019-05-17T04:01:24.894Z,7.13
2019-05-17T04:05:33.300Z,10.73
2019-05-17T04:09:38.050Z,9.97
2019-05-17T04:13:43.724Z,9.07
2019-05-17T04:17:52.690Z,9.70
2019-05-17T04:21:56.790Z,13.13
2019-05-17T04:26:04.339Z,9.53
2019-05-17T04:30:12.587Z,11.27
2019-05-17T04:34:18.050Z,9.47
2019-05-17T04:38:24.962Z,10.73
2019-05-17T04:42:33.162Z,11.47
2019-05-17T04:46:43.063Z,10.03
2019-05-17T04:50:48.788Z,11.57
2019-05-17T04:54:54.487Z,9.73
2019-05-17T04:59:03.246Z,9.93
2019-05-17T05:03:07.864Z,10.53
2019-05-17T05:07:13.933Z,10.60
2019-05-17T05:11:19.636Z,11.90
2019-05-17T05:15:44.472Z,13.97
2019-05-17T05:19:52.971Z,14.67
2019-05-17T05:23:57.864Z,15.23
2019-05-17T05:28:04.606Z,15.33
2019-05-17T05:32:11.805Z,14.77
2019-05-17T05:36:17.587Z,15.53
2019-05-17T05:40:23.257Z,14.90
2019-05-17T05:44:28.959Z,14.83
2019-05-17T05:48:34.637Z,9.77
2019-05-17T05:52:42.409Z,15.93
2019-05-17T05:56:47.828Z,13.47
2019-05-17T06:00:53.641Z,14.63
2019-05-17T06:05:01.751Z,12.57
2019-05-17T06:09:11.836Z,14.80
2019-05-17T06:13:16.961Z,13.97
2019-05-17T06:17:22.643Z,14.60
2019-05-17T06:21:29.020Z,11.83
2019-05-17T06:25:34.704Z,13.07
2019-05-17T06:29:41.506Z,13.60
2019-05-17T06:33:47.410Z,13.23
2019-05-17T06:37:53.612Z,12.67
2019-05-17T06:41:59.368Z,12.00
2019-05-17T06:46:05.179Z,11.80
2019-05-17T06:50:13.929Z,11.53
2019-05-17T06:54:18.818Z,12.10
2019-05-17T06:58:24.519Z,10.77
2019-05-17T07:02:30.816Z,10.27
2019-05-17T07:06:36.933Z,11.97
2019-05-17T07:10:42.703Z,11.37
2019-05-17T07:14:50.561Z,12.23
2019-05-17T07:18:55.795Z,10.83
2019-05-17T07:23:01.472Z,7.23
2019-05-17T07:27:07.225Z,11.73
2019-05-17T07:31:12.922Z,11.20
2019-05-17T07:35:19.800Z,11.00
2019-05-17T07:39:25.503Z,10.47
2019-05-17T07:43:31.278Z,9.50
2019-05-17T07:47:36.959Z,9.67
2019-05-17T07:51:42.644Z,9.43
2019-05-17T07:55:50.589Z,8.33
2019-05-17T07:59:55.818Z,9.33
2019-05-17T08:04:01.921Z,8.97
2019-05-17T08:08:09.655Z,9.53
2019-05-17T08:12:15.181Z,8.83
2019-05-17T08:16:20.903Z,8.67
2019-05-17T08:20:29.836Z,9.47
2019-05-17T08:24:35.109Z,7.97
2019-05-17T08:28:40.825Z,9.00
2019-05-17T08:32:46.607Z,9.40
2019-05-17T08:36:52.299Z,8.67
2019-05-17T08:41:00.526Z,9.53
2019-05-17T08:45:09.528Z,8.43
2019-05-17T08:49:14.855Z,9.20
2019-05-17T08:53:20.515Z,7.20
2019-05-17T08:57:26.513Z,8.80
2019-05-17T09:01:32.204Z,7.00
2019-05-17T09:05:38.043Z,8.53
2019-05-17T09:09:44.271Z,7.90
2019-05-17T09:13:57.907Z,7.77
2019-05-17T09:17:57.327Z,7.70
2019-05-17T09:22:04.069Z,7.37
2019-05-17T09:26:10.133Z,7.67
2019-05-17T09:30:16.435Z,7.67
2019-05-17T09:34:22.105Z,6.90
2019-05-17T09:38:29.556Z,6.60
2019-05-17T09:42:35.411Z,6.23
2019-05-17T09:46:41.088Z,6.43
2019-05-17T09:50:46.783Z,7.23
2019-05-17T09:54:52.443Z,7.90
2019-05-17T09:59:00.233Z,7.97
2019-05-17T10:03:05.593Z,7.23
2019-05-17T10:07:11.324Z,7.17
2019-05-17T10:11:20.092Z,8.10
2019-05-17T10:15:25.556Z,8.40
2019-05-17T10:19:31.756Z,7.53
2019-05-17T10:23:37.420Z,7.17
2019-05-17T10:27:43.108Z,7.40
2019-05-17T10:31:50.466Z,7.30
2019-05-17T10:35:56.279Z,6.27
2019-05-17T10:40:11.522Z,6.79
2019-05-17T10:44:19.825Z,7.43
2019-05-17T10:48:24.835Z,7.97
2019-05-17T10:52:30.510Z,8.00
2019-05-17T10:56:36.567Z,8.00
2019-05-17T11:00:42.397Z,6.80
2019-05-17T11:04:50.386Z,5.37
2019-05-17T11:08:55.517Z,6.50
2019-05-17T11:13:01.308Z,6.23
2019-05-17T11:17:07.015Z,4.40
2019-05-17T11:21:13.016Z,7.50
2019-05-17T11:25:19.156Z,8.10
2019-05-17T11:29:24.848Z,6.20
2019-05-17T11:33:30.515Z,6.23
2019-05-17T11:37:36.214Z,6.97
2019-05-17T11:41:41.895Z,5.40
2019-05-17T11:45:47.745Z,5.53
2019-05-17T11:49:53.489Z,5.53
2019-05-17T11:53:59.148Z,6.70
2019-05-17T11:58:05.495Z,6.00
2019-05-17T12:02:11.192Z,4.57
2019-05-17T12:06:16.941Z,4.10
2019-05-17T12:10:22.821Z,5.10
2019-05-17T12:14:29.628Z,5.23
2019-05-17T12:18:35.368Z,3.67
2019-05-17T12:22:41.839Z,4.80
2019-05-17T12:26:47.683Z,4.47
2019-05-17T12:30:53.410Z,3.60
2019-05-17T12:34:59.082Z,3.90
2019-05-17T12:39:06.777Z,3.57
2019-05-17T12:43:12.517Z,3.90
2019-05-17T12:47:18.246Z,3.23
2019-05-17T12:51:23.937Z,3.80
2019-05-17T12:55:29.672Z,3.70
2019-05-17T12:59:36.331Z,3.17
2019-05-17T13:03:42.006Z,3.70
2019-05-17T13:07:47.977Z,3.70
2019-05-17T13:11:53.647Z,2.90
2019-05-17T13:15:59.419Z,3.40
2019-05-17T13:20:10.268Z,3.40
2019-05-17T13:24:16.027Z,3.43
2019-05-17T13:28:21.702Z,3.13
2019-05-17T13:32:27.453Z,3.10
2019-05-17T13:36:33.204Z,3.17
2019-05-17T13:40:40.062Z,3.13
2019-05-17T13:44:46.065Z,3.83
2019-05-17T13:48:51.754Z,3.50
2019-05-17T13:52:57.469Z,3.97
2019-05-17T13:57:03.196Z,2.90
2019-05-17T14:01:08.928Z,3.77
2019-05-17T14:05:15.690Z,3.63
2019-05-17T14:09:21.368Z,3.57
2019-05-17T14:13:27.060Z,3.90
2019-05-17T14:17:32.742Z,3.53
2019-05-17T14:21:38.443Z,3.30
2019-05-17T14:25:44.102Z,3.70
2019-05-17T14:29:49.806Z,4.00
2019-05-17T14:33:55.507Z,3.70
2019-05-17T14:38:01.182Z,3.30
2019-05-17T14:46:04.617Z,3.57
2019-05-17T14:50:10.904Z,2.30
2019-05-17T14:54:16.591Z,1.50
2019-05-17T14:58:22.287Z,1.70
2019-05-17T15:02:28.062Z,1.70
2019-05-17T15:06:34.074Z,1.50
2019-05-17T15:10:39.813Z,1.80
2019-05-17T15:14:45.611Z,1.37
2019-05-17T15:18:51.328Z,1.47
2019-05-17T15:22:57.200Z,2.50
2019-05-17T15:27:05.783Z,2.17
2019-05-17T15:31:10.264Z,2.20
2019-05-17T15:35:15.990Z,2.40
2019-05-17T15:39:21.748Z,2.13
2019-05-17T15:43:27.418Z,2.07
2019-05-17T15:47:33.122Z,2.10
2019-05-17T15:51:38.799Z,1.90
2019-05-17T15:55:44.464Z,1.90
2019-05-17T15:59:50.168Z,1.87
2019-05-17T16:03:55.913Z,1.73
2019-05-17T16:08:01.575Z,1.83
2019-05-17T16:12:07.328Z,1.80
2019-05-17T16:16:13.004Z,1.60
2019-05-17T16:20:19.051Z,1.53
2019-05-17T16:24:24.781Z,1.60
2019-05-17T16:28:30.516Z,2.30
2019-05-17T16:32:36.161Z,1.80
2019-05-17T16:36:41.819Z,1.97
2019-05-17T16:40:47.519Z,2.80
2019-05-17T16:44:53.273Z,1.87
2019-05-17T16:48:58.941Z,2.03
2019-05-17T16:53:06.546Z,1.77
2019-05-17T16:57:12.435Z,1.87
2019-05-17T17:01:18.267Z,1.90
2019-05-17T17:05:24.138Z,1.80
2019-05-17T17:09:29.882Z,2.30
2019-05-17T17:13:35.644Z,2.40
2019-05-17T17:17:41.318Z,1.93
2019-05-17T17:21:47.029Z,2.50
2019-05-17T17:25:52.686Z,2.97
2019-05-17T17:29:58.353Z,3.40
2019-05-17T17:34:04.235Z,2.80
2019-05-17T17:38:10.547Z,2.50
2019-05-17T17:42:16.219Z,3.03
2019-05-17T17:46:22.370Z,2.73
2019-05-17T17:50:28.071Z,3.43
2019-05-17T17:54:33.845Z,2.97
2019-05-17T17:58:39.514Z,2.93
2019-05-17T18:02:45.316Z,2.97
2019-05-17T18:06:51.014Z,3.20
2019-05-17T18:10:56.715Z,3.10
2019-05-17T18:15:05.930Z,3.13
2019-05-17T18:19:10.386Z,3.20
2019-05-17T18:23:20.932Z,2.97
2019-05-17T18:27:23.787Z,3.40
2019-05-17T18:31:29.584Z,3.60
2019-05-17T18:35:36.338Z,3.63
2019-05-17T18:39:42.031Z,3.37
2019-05-17T18:43:47.729Z,3.20
2019-05-17T18:47:53.559Z,3.13
2019-05-17T18:51:59.418Z,3.23
2019-05-17T18:56:05.108Z,3.60
2019-05-17T19:00:11.555Z,3.40
2019-05-17T19:04:17.246Z,2.70
2019-05-17T19:08:22.953Z,3.40
2019-05-17T19:12:28.638Z,3.20
2019-05-17T19:16:34.346Z,2.70
2019-05-17T19:20:40.195Z,2.70
2019-05-17T19:24:45.894Z,3.67
2019-05-17T19:28:51.573Z,2.93
2019-05-17T19:32:58.250Z,3.40
2019-05-17T19:37:04.010Z,3.13
2019-05-17T19:41:10.692Z,3.50
2019-05-17T19:45:16.831Z,3.60
2019-05-17T19:49:22.569Z,4.20
2019-05-17T19:53:28.254Z,3.97
2019-05-17T19:57:33.986Z,3.60
2019-05-17T20:01:39.726Z,3.33
2019-05-17T20:05:45.424Z,3.07
2019-05-17T20:09:51.087Z,2.83
2019-05-17T20:13:56.770Z,2.70
2019-05-17T20:18:03.620Z,3.00
2019-05-17T20:22:10.076Z,2.60
2019-05-17T20:26:15.797Z,2.67
2019-05-17T20:30:21.805Z,3.00
2019-05-17T20:34:27.473Z,3.10
2019-05-17T20:38:33.303Z,3.07
2019-05-17T20:42:38.973Z,3.10
2019-05-17T20:46:44.651Z,3.13
2019-05-17T20:50:50.370Z,2.90
2019-05-17T20:54:56.033Z,3.20
2019-05-17T20:59:01.717Z,2.70
2019-05-17T21:03:07.395Z,3.10
2019-05-17T21:07:13.090Z,3.80
2019-05-17T21:11:18.819Z,3.93
2019-05-17T21:15:24.536Z,3.80
2019-05-17T21:19:30.198Z,3.70
2019-05-17T21:23:35.895Z,3.00
2019-05-17T21:27:41.923Z,3.47
2019-05-17T21:31:47.580Z,3.10
2019-05-17T21:35:53.402Z,3.07
2019-05-17T21:40:00.060Z,2.50
2019-05-17T21:44:05.944Z,2.80
2019-05-17T21:48:11.638Z,2.57
2019-05-17T21:52:17.309Z,2.80
2019-05-17T21:56:23.034Z,2.40
2019-05-17T22:00:54.305Z,2.70
2019-05-17T22:05:00.056Z,2.77
2019-05-17T22:09:08.054Z,2.83
2019-05-17T22:13:13.732Z,2.93
2019-05-17T22:17:19.409Z,3.20
2019-05-17T22:21:25.118Z,3.60
2019-05-17T22:25:30.822Z,3.20
2019-05-17T22:29:36.513Z,2.40
2019-05-17T22:33:42.228Z,3.20
2019-05-17T22:37:47.982Z,2.37
2019-05-17T22:41:53.658Z,2.70
2019-05-17T22:45:59.383Z,2.72
2019-05-17T22:50:06.382Z,3.10
2019-05-17T22:54:12.049Z,2.70
2019-05-17T22:58:17.740Z,2.80
2019-05-17T23:02:23.442Z,2.90
2019-05-17T23:06:29.109Z,2.80
2019-05-17T23:10:35.235Z,2.90
2019-05-17T23:14:40.976Z,3.27
2019-05-17T23:19:05.824Z,3.23
2019-05-17T23:23:11.531Z,3.17
2019-05-17T23:27:17.208Z,2.90
2019-05-17T23:31:23.086Z,3.20
2019-05-17T23:35:28.764Z,3.00
2019-05-17T23:39:34.518Z,2.70
2019-05-17T23:43:40.219Z,3.13
2019-05-17T23:47:45.900Z,3.30
2019-05-17T23:51:51.614Z,3.50
2019-05-17T23:55:57.284Z,3.47
